Time;durP1;ratioP1;P1;durP2;ratioP2;P2;SDS_P1;SDS_P2;PMS_P1;PMS_P2;Temp;Humidity;BMP_temperature;BMP_pressure;BME280_temperature;BME280_humidity;BME280_pressure;Samples;Min_cycle;Max_cycle;Signal;HPM_P1;HPM_P2
2022/12/06 00:01:44;;;;;;;64.97;24.27;;;;;;;0.75;100.00;101735.59;4965641;28;20228;-79
2022/12/06 00:04:12;;;;;;;66.55;24.77;;;;;;;0.65;100.00;101726.66;4950294;28;20027;-78
2022/12/06 00:06:40;;;;;;;63.35;24.92;;;;;;;0.65;100.00;101724.13;4948655;28;20039;-79
2022/12/06 00:09:06;;;;;;;62.90;25.73;;;;;;;0.65;100.00;101719.00;4949359;28;20043;-79
2022/12/06 00:11:33;;;;;;;68.57;25.95;;;;;;;0.68;100.00;101721.44;4952947;28;20047;-78
2022/12/06 00:14:05;;;;;;;72.63;25.60;;;;;;;0.68;100.00;101725.69;4948873;28;20135;-79
2022/12/06 00:16:31;;;;;;;63.35;25.30;;;;;;;0.72;100.00;101727.25;4964702;28;20039;-78
2022/12/06 00:18:57;;;;;;;63.80;25.10;;;;;;;0.71;100.00;101733.22;4960163;28;20031;-80
2022/12/06 00:21:27;;;;;;;60.78;23.50;;;;;;;0.69;100.00;101727.38;4959777;28;20054;-79
2022/12/06 00:23:55;;;;;;;63.17;25.85;;;;;;;0.74;100.00;101723.72;4927472;28;20118;-78
2022/12/06 00:26:22;;;;;;;55.67;24.67;;;;;;;0.77;100.00;101732.94;4957695;28;20047;-78
2022/12/06 00:28:50;;;;;;;54.95;23.17;;;;;;;0.71;100.00;101730.66;4949470;28;20035;-79
2022/12/06 00:31:18;;;;;;;55.58;23.77;;;;;;;0.70;100.00;101721.38;4964400;28;20543;-79
2022/12/06 00:33:44;;;;;;;63.67;24.63;;;;;;;0.81;100.00;101726.81;4946127;28;20042;-78
2022/12/06 00:36:15;;;;;;;63.75;25.20;;;;;;;0.83;100.00;101717.38;4948540;28;20039;-79
2022/12/06 00:38:41;;;;;;;57.70;23.13;;;;;;;0.83;100.00;101719.91;4949040;28;20035;-78
2022/12/06 00:41:12;;;;;;;57.40;23.70;;;;;;;0.83;100.00;101719.91;4933195;28;20058;-79
2022/12/06 00:43:38;;;;;;;60.80;23.88;;;;;;;0.86;100.00;101718.94;4964797;28;20389;-79
2022/12/06 00:46:05;;;;;;;53.97;22.73;;;;;;;0.90;100.00;101716.16;4948753;28;20094;-78
2022/12/06 00:48:31;;;;;;;62.88;24.30;;;;;;;0.85;100.00;101718.13;4943917;28;20036;-79
2022/12/06 00:50:57;;;;;;;50.50;23.02;;;;;;;0.94;100.00;101715.13;4952767;28;20049;-79
2022/12/06 00:53:23;;;;;;;58.05;23.02;;;;;;;0.91;100.00;101719.56;4950708;28;20035;-79
2022/12/06 00:55:49;;;;;;;57.20;23.15;;;;;;;0.88;100.00;101719.69;4949914;28;20692;-79
2022/12/06 00:58:16;;;;;;;54.05;23.00;;;;;;;0.89;100.00;101716.25;4962472;28;20503;-79
2022/12/06 01:00:42;;;;;;;54.40;23.15;;;;;;;0.86;100.00;101713.81;4949802;28;20058;-79
2022/12/06 01:03:08;;;;;;;59.20;22.75;;;;;;;0.86;100.00;101729.16;4949120;28;20031;-80
2022/12/06 01:05:39;;;;;;;55.17;22.45;;;;;;;0.86;100.00;101726.59;4951948;28;20403;-79
2022/12/06 01:08:05;;;;;;;48.55;21.17;;;;;;;0.82;100.00;101719.97;4963584;28;20395;-79
2022/12/06 01:10:30;;;;;;;62.70;22.67;;;;;;;0.88;100.00;101717.97;4949766;28;20035;-80
2022/12/06 01:12:55;;;;;;;62.92;22.25;;;;;;;1.09;100.00;101728.94;4935134;28;20043;-80
2022/12/06 01:15:21;;;;;;;60.22;22.42;;;;;;;0.97;100.00;101726.94;4931328;28;20053;-79
2022/12/06 01:17:46;;;;;;;52.15;20.60;;;;;;;0.99;100.00;101724.31;4944837;28;20027;-80
2022/12/06 01:20:12;;;;;;;49.97;20.95;;;;;;;0.96;100.00;101717.59;4946378;28;20039;-80
2022/12/06 01:22:37;;;;;;;56.33;22.65;;;;;;;0.99;100.00;101719.19;4948894;28;20035;-80
2022/12/06 01:25:03;;;;;;;59.20;23.02;;;;;;;1.01;100.00;101717.41;4947713;28;20027;-80
2022/12/06 01:27:28;;;;;;;53.30;23.02;;;;;;;1.01;100.00;101714.84;4924895;28;20052;-80
2022/12/06 01:29:54;;;;;;;50.53;21.67;;;;;;;1.01;100.00;101719.97;4944764;28;20087;-82
2022/12/06 01:32:19;;;;;;;57.83;22.90;;;;;;;1.06;100.00;101720.56;4944646;28;20043;-80
2022/12/06 01:34:45;;;;;;;55.33;23.33;;;;;;;1.09;100.00;101717.84;4947563;28;20035;-79
2022/12/06 01:37:10;;;;;;;53.72;22.08;;;;;;;1.04;100.00;101717.28;4945880;28;20574;-80
2022/12/06 01:39:36;;;;;;;51.70;22.17;;;;;;;1.03;100.00;101715.59;4927349;29;20217;-79
2022/12/06 01:42:02;;;;;;;49.55;20.98;;;;;;;1.04;100.00;101725.75;4958117;28;20585;-80
2022/12/06 01:44:41;;;;;;;55.95;22.25;;;;;;;1.09;100.00;101728.94;4953190;28;20766;-79
2022/12/06 01:47:36;;;;;;;60.17;22.50;;;;;;;1.21;100.00;101730.06;4942356;28;20126;-79
2022/12/06 01:50:03;;;;;;;61.03;23.92;;;;;;;1.20;100.00;101727.59;4942093;28;20043;-80
2022/12/06 01:52:38;;;;;;;55.60;22.33;;;;;;;1.17;100.00;101724.28;4952144;28;20047;-79
2022/12/06 01:55:07;;;;;;;50.95;21.60;;;;;;;1.14;100.00;101723.59;4940235;28;20027;-80
2022/12/06 01:57:33;;;;;;;62.72;23.70;;;;;;;1.12;100.00;101725.38;4937492;28;20043;-81
2022/12/06 01:59:59;;;;;;;58.72;22.42;;;;;;;1.11;100.00;101727.13;4943586;28;20050;-80
2022/12/06 02:02:25;;;;;;;66.40;22.45;;;;;;;1.19;100.00;101734.44;4927120;28;20039;-79
2022/12/06 02:04:51;;;;;;;56.05;22.38;;;;;;;1.17;100.00;101726.00;4943337;28;20042;-80
2022/12/06 02:07:19;;;;;;;53.55;22.60;;;;;;;1.17;100.00;101729.38;4940165;28;20524;-79
2022/12/06 02:09:45;;;;;;;55.17;23.45;;;;;;;1.24;100.00;101729.91;4941583;28;20122;-80
2022/12/06 02:12:14;;;;;;;58.28;22.92;;;;;;;1.34;100.00;101727.75;4943039;28;20047;-81
2022/12/06 02:14:42;;;;;;;56.95;23.25;;;;;;;1.28;100.00;101722.94;4943835;28;20055;-79
2022/12/06 02:17:17;;;;;;;54.67;21.60;;;;;;;1.27;100.00;101722.09;4946053;28;20047;-78
2022/12/06 02:19:59;;;;;;;54.22;22.08;;;;;;;1.25;100.00;101721.34;4944928;28;20035;-79
2022/12/06 02:22:31;;;;;;;52.55;22.25;;;;;;;1.35;100.00;101717.44;4943953;28;20405;-79
2022/12/06 02:25:33;;;;;;;52.53;21.52;;;;;;;1.32;100.00;101720.16;4959145;28;20043;-79
2022/12/06 02:28:24;;;;;;;67.57;25.73;;;;;;;1.26;100.00;101712.81;4928627;28;20054;-78
2022/12/06 02:31:34;;;;;;;56.15;23.73;;;;;;;1.24;100.00;101713.75;4922009;28;20650;-80
2022/12/06 02:34:13;;;;;;;53.40;23.05;;;;;;;1.26;100.00;101720.47;4922597;28;20058;-80
2022/12/06 02:36:57;;;;;;;55.90;23.38;;;;;;;1.29;100.00;101722.84;4944057;28;20061;-80
2022/12/06 02:39:38;;;;;;;54.50;22.38;;;;;;;1.29;100.00;101712.63;4957190;28;20039;-79
2022/12/06 02:42:13;;;;;;;46.88;20.20;;;;;;;1.26;100.00;101709.41;4943262;28;20412;-79
2022/12/06 02:44:44;;;;;;;51.33;22.45;;;;;;;1.25;100.00;101712.88;4939621;28;20262;-79
2022/12/06 02:47:11;;;;;;;60.15;23.70;;;;;;;1.24;100.00;101713.75;4953930;28;20090;-79
2022/12/06 02:49:43;;;;;;;59.67;23.60;;;;;;;1.24;100.00;101718.88;4944986;28;20042;-78
2022/12/06 02:52:10;;;;;;;54.40;22.30;;;;;;;1.22;100.00;101716.38;4941126;28;20170;-79
2022/12/06 02:54:38;;;;;;;59.20;23.10;;;;;;;1.22;100.00;101713.81;4942096;28;20401;-80
2022/12/06 02:57:03;;;;;;;54.90;23.00;;;;;;;1.30;100.00;101714.31;4942132;28;20050;-79
2022/12/06 02:59:29;;;;;;;58.95;21.77;;;;;;;1.28;100.00;101712.69;4931403;28;20031;-77
2022/12/06 03:01:59;;;;;;;52.92;21.33;;;;;;;1.26;100.00;101717.91;4932921;28;20047;-79
2022/12/06 03:04:49;;;;;;;49.50;20.45;;;;;;;1.25;100.00;101707.75;4943175;28;20027;-79
2022/12/06 03:07:48;;;;;;;58.10;23.13;;;;;;;1.30;100.00;101713.44;4941946;28;20130;-78
2022/12/06 03:10:44;;;;;;;67.50;23.63;;;;;;;1.32;100.00;101711.69;4931939;28;20056;-78
2022/12/06 03:13:18;;;;;;;57.00;21.98;;;;;;;1.31;100.00;101710.00;4945914;28;20040;-79
2022/12/06 03:15:58;;;;;;;62.50;22.65;;;;;;;1.31;100.00;101713.38;4962773;28;20126;-82
2022/12/06 03:18:48;;;;;;;52.47;22.23;;;;;;;1.32;100.00;101722.72;4952090;28;20039;-79
2022/12/06 03:21:22;;;;;;;57.17;20.88;;;;;;;1.37;100.00;101717.38;4950908;28;20489;-79
2022/12/06 03:23:49;;;;;;;52.80;22.00;;;;;;;1.33;100.00;101715.88;4962062;28;20094;-78
2022/12/06 03:26:20;;;;;;;53.67;20.95;;;;;;;1.36;100.00;101714.00;4964967;28;20035;-78
2022/12/06 03:28:49;;;;;;;56.20;21.33;;;;;;;1.38;100.00;101713.94;4936317;28;20065;-79
2022/12/06 03:31:15;;;;;;;52.97;20.95;;;;;;;1.36;100.00;101705.50;4957370;28;20035;-78
2022/12/06 03:33:54;;;;;;;53.30;21.45;;;;;;;1.35;100.00;101712.31;4952058;28;20035;-77
2022/12/06 03:36:21;;;;;;;55.28;20.92;;;;;;;1.37;100.00;101712.25;4951187;28;20070;-78
2022/12/06 03:38:56;;;;;;;59.78;21.77;;;;;;;1.38;100.00;101706.25;4964608;28;20035;-77
2022/12/06 03:41:27;;;;;;;55.80;21.23;;;;;;;1.36;100.00;101714.00;4948789;28;20409;-78
2022/12/06 03:43:53;;;;;;;65.35;22.67;;;;;;;1.44;100.00;101718.75;4949802;28;20036;-77
2022/12/06 03:46:31;;;;;;;75.95;27.13;;;;;;;1.42;100.00;101710.31;4932686;28;20055;-78
2022/12/06 03:49:05;;;;;;;98.22;43.22;;;;;;;1.42;100.00;101709.50;4913037;29;20040;-78
2022/12/06 03:51:33;;;;;;;75.47;32.63;;;;;;;1.47;100.00;101717.75;4938683;28;20055;-77
2022/12/06 03:54:03;;;;;;;67.82;29.75;;;;;;;1.50;100.00;101712.50;4944852;28;20038;-78
2022/12/06 03:56:29;;;;;;;64.70;28.17;;;;;;;1.49;100.00;101719.34;4958135;28;20078;-78
2022/12/06 03:58:54;;;;;;;61.15;26.23;;;;;;;1.47;100.00;101720.31;4948060;28;20066;-78
2022/12/06 04:01:20;;;;;;;62.45;23.05;;;;;;;1.59;100.00;101729.13;4968377;28;20050;-78
2022/12/06 04:03:45;;;;;;;63.53;23.60;;;;;;;1.62;100.00;101723.84;4937240;28;20030;-78
2022/12/06 04:06:11;;;;;;;57.42;24.98;;;;;;;1.60;100.00;101726.50;4953278;28;20053;-78
2022/12/06 04:08:37;;;;;;;74.13;30.98;;;;;;;1.60;100.00;101723.94;4963758;28;20121;-78
2022/12/06 04:11:03;;;;;;;60.90;26.05;;;;;;;1.58;100.00;101715.50;4965247;28;20054;-78
2022/12/06 04:13:29;;;;;;;61.22;23.27;;;;;;;1.63;100.00;101717.84;4949599;28;20234;-77
2022/12/06 04:15:59;;;;;;;67.65;23.58;;;;;;;1.63;100.00;101721.22;4955103;28;20059;-78
2022/12/06 04:18:25;;;;;;;57.13;21.58;;;;;;;1.67;100.00;101721.91;4930448;29;20035;-77
2022/12/06 04:23:40;;;;;;;60.00;21.95;;;;;;;1.67;100.00;101720.16;4945923;28;20042;-77
2022/12/06 04:26:09;;;;;;;51.97;19.17;;;;;;;1.66;100.00;101717.72;4929423;28;20130;-79
2022/12/06 04:39:32;;;;;;;55.30;20.75;;;;;;;1.79;100.00;101726.41;4948749;28;20576;-78
2022/12/06 04:44:43;;;;;;;50.92;19.85;;;;;;;1.77;100.00;101727.38;4949793;28;20031;-77
2022/12/06 04:47:08;;;;;;;52.85;21.17;;;;;;;1.77;100.00;101725.63;4948012;28;20558;-77
2022/12/06 04:49:35;;;;;;;57.90;20.92;;;;;;;1.78;100.00;101723.94;4949830;28;20043;-77
2022/12/06 04:52:02;;;;;;;61.45;22.77;;;;;;;1.81;100.00;101722.06;4949816;28;20069;-77
2022/12/06 04:54:28;;;;;;;54.63;20.63;;;;;;;1.85;100.00;101721.00;4951274;28;20088;-77
2022/12/06 04:56:55;;;;;;;55.03;20.17;;;;;;;1.83;100.00;101715.13;4974374;28;20066;-78
2022/12/06 04:59:21;;;;;;;56.40;19.83;;;;;;;1.83;100.00;101724.50;4948025;28;20031;-78
2022/12/06 05:01:46;;;;;;;51.20;20.05;;;;;;;1.83;100.00;101722.81;4943023;28;20046;-78
2022/12/06 05:04:11;;;;;;;56.58;19.05;;;;;;;1.82;100.00;101726.25;4947889;28;20400;-77
2022/12/06 05:06:37;;;;;;;56.78;18.92;;;;;;;1.86;100.00;101729.47;4948092;28;20424;-77
2022/12/06 05:09:03;;;;;;;52.03;19.30;;;;;;;1.88;100.00;101731.06;4944347;28;20086;-78
2022/12/06 05:11:28;;;;;;;50.95;18.48;;;;;;;1.98;100.00;101726.31;4953317;28;20049;-77
2022/12/06 05:13:54;;;;;;;49.30;18.80;;;;;;;1.99;100.00;101730.53;4939325;28;20027;-77
2022/12/06 05:16:19;;;;;;;45.28;17.98;;;;;;;2.12;100.00;101733.28;4950309;28;20419;-77
2022/12/06 05:18:45;;;;;;;58.50;20.00;;;;;;;2.13;100.00;101740.91;4943892;28;20039;-77
2022/12/06 05:21:17;;;;;;;53.55;19.30;;;;;;;2.11;100.00;101737.59;4947979;28;20060;-78
2022/12/06 05:23:43;;;;;;;42.22;17.45;;;;;;;2.14;100.00;101737.41;4929093;28;20039;-77
2022/12/06 05:26:12;;;;;;;44.35;18.92;;;;;;;2.16;100.00;101739.06;4940412;28;20055;-77
2022/12/06 05:28:37;;;;;;;52.28;18.63;;;;;;;2.18;100.00;101727.03;4949616;28;20559;-77
2022/12/06 05:31:03;;;;;;;50.97;19.05;;;;;;;2.20;100.00;101720.91;4933146;28;20059;-77
2022/12/06 05:33:29;;;;;;;48.00;17.48;;;;;;;2.16;100.00;101721.97;4949799;28;20050;-77
2022/12/06 05:35:55;;;;;;;43.47;15.23;;;;;;;2.13;100.00;101730.66;4942701;28;20047;-77
2022/12/06 05:38:21;;;;;;;44.95;16.73;;;;;;;2.14;100.00;101727.19;4948920;28;20113;-80
2022/12/06 05:40:46;;;;;;;41.10;15.60;;;;;;;2.13;100.00;101722.16;4941184;28;20047;-77
2022/12/06 05:43:13;;;;;;;49.97;16.05;;;;;;;2.14;100.00;101721.25;4959071;28;20074;-79
2022/12/06 05:45:38;;;;;;;44.85;16.75;;;;;;;2.11;100.00;101727.34;4948037;28;20110;-78
2022/12/06 05:48:05;;;;;;;38.63;15.90;;;;;;;2.13;100.00;101715.31;4953030;28;20070;-79
2022/12/06 05:50:30;;;;;;;40.88;15.30;;;;;;;2.17;100.00;101726.22;4946899;28;20118;-80
2022/12/06 05:52:58;;;;;;;45.15;15.05;;;;;;;2.22;100.00;101726.78;4945275;28;20472;-79
2022/12/06 05:55:24;;;;;;;42.38;14.57;;;;;;;2.30;100.00;101727.22;4952006;28;20122;-79
2022/12/06 05:57:51;;;;;;;40.92;14.55;;;;;;;2.35;100.00;101734.66;4943828;28;20039;-79
2022/12/06 06:00:17;;;;;;;40.22;14.98;;;;;;;2.33;100.00;101736.47;4944243;28;20031;-79
2022/12/06 06:02:44;;;;;;;32.72;14.05;;;;;;;2.32;100.00;101737.41;4946019;28;20027;-79
2022/12/06 06:05:10;;;;;;;38.17;14.90;;;;;;;2.32;100.00;101742.50;4948129;28;20110;-79
2022/12/06 06:07:35;;;;;;;35.90;13.27;;;;;;;2.33;100.00;101737.28;4950268;28;20031;-80
2022/12/06 06:10:01;;;;;;;42.47;15.13;;;;;;;2.42;100.00;101732.63;4950649;28;20384;-78
2022/12/06 06:12:26;;;;;;;49.10;15.23;;;;;;;2.37;100.00;101737.13;4949516;28;20050;-80
2022/12/06 06:14:52;;;;;;;36.05;14.10;;;;;;;2.42;100.00;101740.28;4947959;28;20187;-79
2022/12/06 06:17:18;;;;;;;35.67;14.32;;;;;;;2.48;100.00;101737.41;4947852;28;20082;-78
2022/12/06 06:19:43;;;;;;;34.15;12.98;;;;;;;2.46;100.00;101737.47;4955846;28;20031;-79
2022/12/06 06:22:09;;;;;;;36.40;14.48;;;;;;;2.46;100.00;101734.09;4958599;28;20055;-79
2022/12/06 06:24:39;;;;;;;35.83;13.23;;;;;;;2.43;100.00;101740.22;4963005;28;20027;-79
2022/12/06 06:27:05;;;;;;;34.95;12.93;;;;;;;2.43;100.00;101734.25;4952618;28;20043;-80
2022/12/06 06:29:31;;;;;;;34.05;12.55;;;;;;;2.43;100.00;101732.53;4942971;28;20034;-79
2022/12/06 06:31:57;;;;;;;43.05;15.20;;;;;;;2.50;100.00;101735.59;4949428;28;20038;-80
2022/12/06 06:34:24;;;;;;;33.88;13.50;;;;;;;2.46;100.00;101737.47;4954678;28;20114;-79
2022/12/06 06:36:49;;;;;;;37.58;13.60;;;;;;;2.51;100.00;101735.50;4962578;28;20087;-79
2022/12/06 06:39:15;;;;;;;36.47;14.27;;;;;;;2.51;100.00;101737.25;4963974;28;20040;-79
2022/12/06 06:41:40;;;;;;;41.28;13.48;;;;;;;2.53;100.00;101740.56;4946161;28;20408;-77
2022/12/06 06:44:06;;;;;;;48.42;14.13;;;;;;;2.54;100.00;101739.63;4951399;28;20027;-79
2022/12/06 06:46:31;;;;;;;38.60;14.00;;;;;;;2.56;100.00;101742.13;4950909;28;20135;-79
2022/12/06 06:48:57;;;;;;;38.92;14.05;;;;;;;2.56;100.00;101749.81;4952138;28;20035;-79
2022/12/06 06:51:22;;;;;;;43.53;13.52;;;;;;;2.61;100.00;101746.09;4954089;28;20054;-79
2022/12/06 06:53:47;;;;;;;37.67;13.02;;;;;;;2.61;100.00;101740.97;4953485;28;20046;-79
2022/12/06 06:56:13;;;;;;;34.95;11.93;;;;;;;2.59;100.00;101750.47;4949367;28;20051;-78
2022/12/06 06:58:39;;;;;;;37.75;13.88;;;;;;;2.58;100.00;101750.53;4933749;28;20050;-78
2022/12/06 07:01:07;;;;;;;40.30;14.18;;;;;;;2.60;100.00;101741.91;4963162;28;20121;-79
2022/12/06 07:03:32;;;;;;;41.80;14.55;;;;;;;2.60;100.00;101751.28;4930694;29;20172;-79
2022/12/06 07:06:05;;;;;;;41.50;12.98;;;;;;;2.60;100.00;101751.28;4947590;28;20531;-79
2022/12/06 07:08:31;;;;;;;41.95;13.73;;;;;;;2.59;100.00;101752.22;4944534;28;20031;-78
2022/12/06 07:10:57;;;;;;;37.97;14.43;;;;;;;2.64;100.00;101745.94;4948922;28;20083;-79
2022/12/06 07:13:24;;;;;;;46.25;14.80;;;;;;;2.63;100.00;101744.28;4961342;28;20062;-79
2022/12/06 07:15:50;;;;;;;39.33;14.05;;;;;;;2.68;100.00;101741.50;4948732;28;20047;-79
2022/12/06 07:18:17;;;;;;;49.78;14.30;;;;;;;2.66;100.00;101738.19;4955349;28;20115;-79
2022/12/06 07:20:43;;;;;;;43.97;13.15;;;;;;;2.65;100.00;101737.34;4929724;28;20050;-79
2022/12/06 07:23:09;;;;;;;34.75;13.18;;;;;;;2.69;100.00;101745.69;4943920;28;20071;-78
2022/12/06 07:25:34;;;;;;;36.08;13.38;;;;;;;2.69;100.00;101738.00;4935784;28;20051;-79
2022/12/06 07:28:00;;;;;;;36.60;14.10;;;;;;;2.75;100.00;101736.84;4958426;28;20547;-80
2022/12/06 07:30:26;;;;;;;38.15;13.98;;;;;;;2.77;100.00;101738.44;4952132;28;20031;-79
2022/12/06 07:32:52;;;;;;;37.45;12.68;;;;;;;2.78;100.00;101741.81;4951914;28;20054;-79
2022/12/06 07:35:18;;;;;;;36.42;13.00;;;;;;;2.77;100.00;101735.88;4943945;28;20047;-79
2022/12/06 07:37:44;;;;;;;32.97;11.43;;;;;;;2.81;100.00;101746.78;4951100;28;20036;-78
2022/12/06 07:40:12;;;;;;;31.88;12.48;;;;;;;2.78;100.00;101746.94;4947349;28;20110;-79
2022/12/06 07:45:22;;;;;;;33.83;12.27;;;;;;;2.92;100.00;101744.47;4958281;28;20492;-80
2022/12/06 07:47:47;;;;;;;44.85;14.75;;;;;;;2.91;100.00;101751.31;4954007;28;20122;-80
2022/12/06 07:50:19;;;;;;;41.90;16.45;;;;;;;2.86;100.00;101750.75;4948375;28;20488;-80
2022/12/06 07:52:46;;;;;;;36.40;13.13;;;;;;;2.87;100.00;101760.06;4946551;28;20125;-79
2022/12/06 07:55:13;;;;;;;39.72;12.20;;;;;;;2.90;100.00;101752.25;4950407;28;20031;-77
2022/12/06 07:57:38;;;;;;;35.67;13.02;;;;;;;2.96;100.00;101761.31;4949286;28;20477;-79
2022/12/06 08:00:06;;;;;;;39.63;13.13;;;;;;;2.96;100.00;101755.34;4949621;28;20034;-79
2022/12/06 08:02:37;;;;;;;36.35;12.13;;;;;;;2.92;100.00;101760.66;4951472;28;20154;-76
2022/12/06 08:05:03;;;;;;;36.83;13.00;;;;;;;2.99;100.00;101765.44;4959258;28;20030;-76
2022/12/06 08:07:28;;;;;;;47.30;15.55;;;;;;;3.05;100.00;101765.97;4947060;28;20496;-77
2022/12/06 08:09:54;;;;;;;36.97;13.20;;;;;;;3.09;100.00;101766.63;4943280;28;20593;-77
2022/12/06 08:12:20;;;;;;;38.30;12.75;;;;;;;3.09;100.00;101769.19;4947744;28;20054;-77
2022/12/06 08:14:47;;;;;;;40.13;13.48;;;;;;;3.16;100.00;101767.91;4941271;28;20031;-76
2022/12/06 08:17:12;;;;;;;39.63;13.07;;;;;;;3.14;100.00;101768.91;4948035;28;20045;-76
2022/12/06 08:19:38;;;;;;;34.05;13.05;;;;;;;3.18;100.00;101772.97;4949334;28;20031;-78
2022/12/06 08:22:04;;;;;;;44.28;13.63;;;;;;;3.18;100.00;101773.78;4952534;28;20872;-78
2022/12/06 08:24:29;;;;;;;33.80;14.43;;;;;;;3.18;100.00;101775.53;4947938;28;20042;-80
2022/12/06 08:26:55;;;;;;;35.00;13.90;;;;;;;3.22;100.00;101777.00;4962865;28;20043;-79
2022/12/06 08:29:21;;;;;;;41.00;13.38;;;;;;;3.18;100.00;101778.09;4946601;28;20396;-78
2022/12/06 08:31:47;;;;;;;30.95;13.52;;;;;;;3.24;100.00;101770.06;4959201;28;20496;-78
2022/12/06 08:34:14;;;;;;;39.00;14.18;;;;;;;3.22;100.00;101775.28;4943210;28;20046;-79
2022/12/06 08:36:39;;;;;;;35.15;12.93;;;;;;;3.30;100.00;101778.25;4945913;28;20762;-80
2022/12/06 08:39:07;;;;;;;36.78;13.27;;;;;;;3.34;100.00;101771.22;4950691;28;20039;-79
2022/12/06 08:44:19;;;;;;;39.85;13.27;;;;;;;3.29;100.00;101776.56;4938674;28;20036;-79
2022/12/06 08:46:45;;;;;;;33.08;12.82;;;;;;;3.38;100.00;101774.44;4944564;28;20046;-80
2022/12/06 08:49:11;;;;;;;41.50;13.65;;;;;;;3.48;100.00;101773.00;4949036;28;20031;-79
2022/12/06 08:51:37;;;;;;;33.83;15.23;;;;;;;3.38;100.00;101777.81;4946332;28;20039;-78
2022/12/06 08:54:04;;;;;;;34.17;12.85;;;;;;;3.44;100.00;101779.22;4967161;28;20567;-79
2022/12/06 08:56:29;;;;;;;31.85;12.13;;;;;;;3.38;100.00;101774.44;4937285;28;20075;-79
2022/12/06 08:58:56;;;;;;;32.17;13.50;;;;;;;3.45;100.00;101779.13;4965315;28;20122;-79
2022/12/06 09:01:24;;;;;;;30.67;13.57;;;;;;;3.51;100.00;101773.66;4950947;28;20058;-79
2022/12/06 09:03:50;;;;;;;41.53;14.52;;;;;;;3.50;100.00;101771.16;4945289;28;20121;-80
2022/12/06 09:06:18;;;;;;;35.70;12.80;;;;;;;3.69;100.00;101770.94;4946965;28;20043;-78
2022/12/06 09:08:44;;;;;;;27.38;11.93;;;;;;;3.64;100.00;101772.97;4945673;28;20079;-78
2022/12/06 09:11:10;;;;;;;30.30;12.63;;;;;;;3.60;100.00;101767.19;4948273;28;20158;-77
2022/12/06 09:13:36;;;;;;;29.85;12.88;;;;;;;3.60;100.00;101774.88;4947611;28;20170;-76
2022/12/06 09:16:07;;;;;;;31.02;12.00;;;;;;;3.62;100.00;101773.06;4946649;28;20047;-76
2022/12/06 09:18:32;;;;;;;28.40;11.15;;;;;;;3.63;100.00;101766.19;4950002;28;20075;-76
2022/12/06 09:20:58;;;;;;;25.60;11.65;;;;;;;3.66;100.00;101771.97;4943447;28;20082;-76
2022/12/06 09:23:23;;;;;;;29.52;10.85;;;;;;;3.65;100.00;101762.59;4934967;29;20027;-79
2022/12/06 09:25:48;;;;;;;29.67;10.10;;;;;;;3.66;100.00;101764.25;4945083;28;20412;-80
2022/12/06 09:28:14;;;;;;;28.55;11.82;;;;;;;3.69;100.00;101761.53;4948566;28;20436;-79
2022/12/06 09:30:40;;;;;;;30.98;11.75;;;;;;;3.78;100.00;101762.72;4950498;28;20163;-79
2022/12/06 09:33:05;;;;;;;29.48;10.82;;;;;;;3.81;100.00;101764.31;4963045;28;20517;-78
2022/12/06 09:35:32;;;;;;;25.65;11.20;;;;;;;3.74;100.00;101768.13;4941214;28;20740;-79
2022/12/06 09:37:59;;;;;;;25.48;11.15;;;;;;;3.74;100.00;101758.69;4962113;28;20039;-78
2022/12/06 09:40:52;;;;;;;24.38;10.32;;;;;;;3.72;100.00;101763.09;4944526;28;20041;-79
2022/12/06 09:43:30;;;;;;;23.27;10.48;;;;;;;3.73;100.00;101761.34;4941053;28;20457;-78
2022/12/06 09:46:04;;;;;;;26.25;11.48;;;;;;;3.76;100.00;101764.56;4931501;28;20047;-79
2022/12/06 09:48:38;;;;;;;29.88;11.10;;;;;;;3.81;100.00;101761.75;4948307;28;20067;-78
2022/12/06 09:51:41;;;;;;;27.40;11.07;;;;;;;3.87;100.00;101762.19;4944368;28;20054;-77
2022/12/06 09:54:33;;;;;;;24.00;9.90;;;;;;;3.80;100.00;101767.78;4947079;28;20053;-78
2022/12/06 09:57:18;;;;;;;24.17;10.20;;;;;;;3.85;100.00;101765.78;4939666;28;20134;-77
2022/12/06 09:59:55;;;;;;;24.08;10.38;;;;;;;3.94;100.00;101760.13;4950746;28;20050;-76
2022/12/06 10:02:36;;;;;;;22.05;10.25;;;;;;;3.92;100.00;101759.38;4945441;28;20421;-75
2022/12/06 10:05:18;;;;;;;27.02;9.75;;;;;;;3.89;100.00;101760.38;4958873;28;20050;-77
2022/12/06 10:08:11;;;;;;;22.00;9.13;;;;;;;3.96;100.00;101758.28;4950479;28;20070;-80
2022/12/06 10:10:56;;;;;;;26.35;8.75;;;;;;;4.10;100.00;101760.03;4951578;28;20074;-79
2022/12/06 10:13:28;;;;;;;28.42;9.80;;;;;;;4.08;100.00;101749.84;4951146;28;20042;-79
2022/12/06 10:16:27;;;;;;;16.65;8.20;;;;;;;4.11;100.00;101746.31;4946682;28;20055;-79
2022/12/06 10:19:07;;;;;;;17.08;8.43;;;;;;;4.12;100.00;101741.97;4946257;28;20099;-80
2022/12/06 10:22:00;;;;;;;23.45;9.45;;;;;;;4.20;100.00;101738.06;4959742;28;20051;-77
2022/12/06 10:24:34;;;;;;;20.10;8.77;;;;;;;4.26;100.00;101736.84;4963016;28;20527;-79
2022/12/06 10:27:08;;;;;;;23.40;9.40;;;;;;;4.32;100.00;101721.06;4961251;28;20066;-77
2022/12/06 10:29:51;;;;;;;17.02;8.35;;;;;;;4.32;100.00;101723.66;4947291;28;20051;-79
2022/12/06 10:33:04;;;;;;;19.33;8.13;;;;;;;4.20;100.00;101708.97;4947442;28;20046;-79
2022/12/06 10:35:45;;;;;;;17.87;7.73;;;;;;;4.22;100.00;101714.81;4946552;28;20082;-79
2022/12/06 10:38:29;;;;;;;18.83;7.60;;;;;;;4.21;100.00;101713.19;4959646;28;20470;-79
2022/12/06 10:41:15;;;;;;;15.27;7.07;;;;;;;4.24;100.00;101705.31;4955499;28;20489;-79
2022/12/06 10:43:50;;;;;;;17.50;7.43;;;;;;;4.37;100.00;101701.09;4929793;29;20109;-79
2022/12/06 10:49:18;;;;;;;15.25;7.32;;;;;;;4.41;100.00;101701.72;4946717;28;20032;-80
2022/12/06 10:51:53;;;;;;;22.40;6.53;;;;;;;4.51;100.00;101700.22;4962588;28;20047;-80
2022/12/06 10:54:36;;;;;;;13.43;6.18;;;;;;;4.44;100.00;101694.63;4951875;28;20031;-79
2022/12/06 10:57:06;;;;;;;14.80;6.65;;;;;;;4.51;100.00;101692.53;4961536;28;20126;-79
2022/12/06 10:59:40;;;;;;;16.40;6.45;;;;;;;4.52;100.00;101688.19;4960929;28;20043;-79
2022/12/06 11:02:25;;;;;;;14.73;6.45;;;;;;;4.55;100.00;101678.56;4959716;28;20039;-80
2022/12/06 11:04:53;;;;;;;16.73;7.03;;;;;;;4.74;100.00;101669.72;4965985;28;20056;-77
2022/12/06 11:07:24;;;;;;;16.35;6.43;;;;;;;4.68;100.00;101668.34;4941315;28;20540;-78
2022/12/06 11:09:55;;;;;;;16.13;7.20;;;;;;;4.73;100.00;101662.91;4957798;28;20060;-80
2022/12/06 11:12:37;;;;;;;14.48;6.57;;;;;;;4.76;100.00;101665.28;4945058;28;20078;-80
2022/12/06 11:15:24;;;;;;;10.73;6.55;;;;;;;4.81;100.00;101671.78;4946810;28;20031;-80
2022/12/06 11:18:02;;;;;;;13.05;5.28;;;;;;;4.74;100.00;101669.72;4941704;28;20476;-80
2022/12/06 11:20:40;;;;;;;15.30;6.00;;;;;;;4.78;100.00;101668.59;4948061;28;20031;-80
2022/12/06 11:23:41;;;;;;;12.88;5.82;;;;;;;4.85;100.00;101670.69;4952165;28;20040;-79
2022/12/06 11:26:34;;;;;;;12.55;5.50;;;;;;;4.82;100.00;101655.47;4944779;28;20051;-79
2022/12/06 11:29:08;;;;;;;13.27;5.78;;;;;;;4.79;100.00;101659.97;4947362;28;20448;-80
2022/12/06 11:31:37;;;;;;;9.63;5.32;;;;;;;4.81;100.00;101656.38;4953433;28;20133;-79
2022/12/06 11:34:05;;;;;;;12.35;5.85;;;;;;;4.81;100.00;101653.81;4963611;28;20050;-80
2022/12/06 11:36:31;;;;;;;14.27;6.30;;;;;;;4.88;100.00;101661.97;4942217;28;20051;-79
2022/12/06 11:38:58;;;;;;;11.48;5.35;;;;;;;4.94;100.00;101656.44;4933781;29;20040;-79
2022/12/06 11:41:27;;;;;;;11.95;5.55;;;;;;;4.87;100.00;101655.16;4926675;28;20043;-79
2022/12/06 11:43:53;;;;;;;12.77;5.88;;;;;;;5.01;100.00;101660.25;4955468;28;20062;-79
2022/12/06 11:46:20;;;;;;;12.18;5.78;;;;;;;5.12;100.00;101656.16;4950958;28;20729;-79
2022/12/06 11:48:46;;;;;;;15.63;5.18;;;;;;;5.10;100.00;101653.69;4951740;28;20444;-79